Time;durP1;ratioP1;P1;durP2;ratioP2;P2;SDS_P1;SDS_P2;PMS_P1;PMS_P2;Temp;Humidity;BMP_temperature;BMP_pressure;BME280_temperature;BME280_humidity;BME280_pressure;Samples;Min_cycle;Max_cycle;Signal;HPM_P1;HPM_P2
2022/06/02 00:01:37;;;;;;;0.00;0.00;;;;;;;;;;5069392;28;20024;-64
2022/06/02 00:04:11;;;;;;;0.00;0.00;;;;;;;;;;5067708;28;20061;-65
2022/06/02 00:06:37;;;;;;;0.00;0.00;;;;;;;;;;5069103;28;20449;-65
2022/06/02 00:09:20;;;;;;;0.00;0.00;;;;;;;;;;5067484;28;20063;-65
2022/06/02 00:12:04;;;;;;;0.00;0.00;;;;;;;;;;5067682;28;20497;-65
2022/06/02 00:14:48;;;;;;;0.00;0.00;;;;;;;;;;5068473;28;20017;-64
2022/06/02 00:17:23;;;;;;;0.00;0.00;;;;;;;;;;5068336;28;20020;-64
2022/06/02 00:19:48;;;;;;;0.00;0.00;;;;;;;;;;5068414;28;20024;-64
2022/06/02 00:22:13;;;;;;;0.00;0.00;;;;;;;;;;5069328;28;20028;-64
2022/06/02 00:24:43;;;;;;;0.00;0.00;;;;;;;;;;5069396;28;20782;-64
2022/06/02 00:27:08;;;;;;;;;;;;;;;;;;5069807;28;20028;-64
2022/06/02 00:29:46;;;;;;;0.00;0.00;;;;;;;;;;5069255;28;19922;-65
2022/06/02 00:32:20;;;;;;;0.00;0.00;;;;;;;;;;5069290;28;20253;-65
2022/06/02 00:35:00;;;;;;;0.00;0.00;;;;;;;;;;5068623;28;20031;-65
2022/06/02 00:37:44;;;;;;;0.00;0.00;;;;;;;;;;5069040;28;20017;-65
2022/06/02 00:40:10;;;;;;;0.00;0.00;;;;;;;;;;5068086;28;20051;-65
2022/06/02 00:42:39;;;;;;;0.00;0.00;;;;;;;;;;5067699;28;20009;-65
2022/06/02 00:45:09;;;;;;;0.00;0.00;;;;;;;;;;5068780;28;20031;-65
2022/06/02 00:47:53;;;;;;;0.00;0.00;;;;;;;;;;5068071;28;20028;-65
2022/06/02 00:50:30;;;;;;;0.17;0.17;;;;;;;;;;5068730;28;20037;-65
2022/06/02 00:53:14;;;;;;;0.00;0.00;;;;;;;;;;5067927;28;20085;-64
2022/06/02 00:58:58;;;;;;;0.00;0.00;;;;;;;;;;5068814;28;20031;-65
2022/06/02 01:01:27;;;;;;;0.00;0.00;;;;;;;;;;5068689;28;20098;-64
2022/06/02 01:03:53;;;;;;;0.00;0.00;;;;;;;;;;5067493;28;20044;-65
2022/06/02 01:06:19;;;;;;;0.00;0.00;;;;;;;;;;5067860;28;20035;-65
2022/06/02 01:09:02;;;;;;;0.00;0.00;;;;;;;;;;5067725;28;20017;-65
2022/06/02 01:11:30;;;;;;;0.00;0.00;;;;;;;;;;5068126;28;20036;-65
2022/06/02 01:14:07;;;;;;;0.00;0.00;;;;;;;;;;5067628;28;20362;-65
2022/06/02 01:16:38;;;;;;;0.00;0.00;;;;;;;;;;5068600;28;20044;-64
2022/06/02 01:19:19;;;;;;;0.00;0.00;;;;;;;;;;5050572;28;20025;-65
2022/06/02 01:21:47;;;;;;;0.00;0.00;;;;;;;;;;5068806;28;20020;-65
2022/06/02 01:24:24;;;;;;;0.00;0.00;;;;;;;;;;5069365;28;20012;-65
2022/06/02 01:26:57;;;;;;;0.00;0.00;;;;;;;;;;5067452;28;20077;-65
2022/06/02 01:29:41;;;;;;;0.00;0.00;;;;;;;;;;5068490;28;20033;-64
2022/06/02 01:32:12;;;;;;;0.00;0.00;;;;;;;;;;5067821;28;20069;-65
2022/06/02 01:34:49;;;;;;;0.00;0.00;;;;;;;;;;5068574;28;20035;-65
2022/06/02 01:37:21;;;;;;;0.00;0.00;;;;;;;;;;5067444;28;20017;-65
2022/06/02 01:39:55;;;;;;;0.00;0.00;;;;;;;;;;5066822;28;20028;-65
2022/06/02 01:42:20;;;;;;;0.00;0.00;;;;;;;;;;5068485;28;20043;-65
2022/06/02 01:45:04;;;;;;;0.00;0.00;;;;;;;;;;5049754;28;20016;-65
2022/06/02 01:47:42;;;;;;;0.00;0.00;;;;;;;;;;5066667;28;20569;-65
2022/06/02 01:50:12;;;;;;;0.00;0.00;;;;;;;;;;5066721;28;20537;-65
2022/06/02 01:52:49;;;;;;;0.32;0.13;;;;;;;;;;5068393;28;20031;-64
2022/06/02 01:55:15;;;;;;;0.00;0.00;;;;;;;;;;5068444;28;20435;-65
2022/06/02 01:57:56;;;;;;;0.00;0.00;;;;;;;;;;5067816;28;20020;-65
2022/06/02 02:00:23;;;;;;;0.00;0.00;;;;;;;;;;5072015;28;20561;-65
2022/06/02 02:03:07;;;;;;;0.00;0.00;;;;;;;;;;5070530;28;20036;-65
2022/06/02 02:05:51;;;;;;;0.03;0.03;;;;;;;;;;5068964;28;20024;-64
2022/06/02 02:08:22;;;;;;;0.00;0.00;;;;;;;;;;5071921;28;20041;-65
2022/06/02 02:10:51;;;;;;;0.00;0.00;;;;;;;;;;5052460;28;20035;-64
2022/06/02 02:13:16;;;;;;;0.00;0.00;;;;;;;;;;5071421;28;20016;-64
2022/06/02 02:15:41;;;;;;;0.00;0.00;;;;;;;;;;5071602;28;20488;-64
2022/06/02 02:18:21;;;;;;;0.00;0.00;;;;;;;;;;5070654;28;20099;-63
2022/06/02 02:20:52;;;;;;;0.00;0.00;;;;;;;;;;5070763;28;20073;-64
2022/06/02 02:23:17;;;;;;;0.00;0.00;;;;;;;;;;5071278;28;20012;-63
2022/06/02 02:25:45;;;;;;;0.00;0.00;;;;;;;;;;5070929;28;20042;-64
2022/06/02 02:28:13;;;;;;;0.00;0.00;;;;;;;;;;5071588;28;20020;-64
2022/06/02 02:30:44;;;;;;;0.00;0.00;;;;;;;;;;5071065;28;20016;-64
2022/06/02 02:33:28;;;;;;;0.00;0.00;;;;;;;;;;5069784;28;20039;-64
2022/06/02 02:36:02;;;;;;;0.00;0.00;;;;;;;;;;5070723;28;20051;-65
2022/06/02 02:38:39;;;;;;;0.00;0.00;;;;;;;;;;5071011;28;20028;-63
2022/06/02 02:41:06;;;;;;;0.00;0.00;;;;;;;;;;5070822;28;20029;-64
2022/06/02 02:43:41;;;;;;;0.00;0.00;;;;;;;;;;5070604;28;20032;-64
2022/06/02 02:46:11;;;;;;;0.00;0.00;;;;;;;;;;5070864;28;20481;-64
2022/06/02 02:48:43;;;;;;;1.45;0.35;;;;;;;;;;5071067;28;20032;-64
2022/06/02 02:51:14;;;;;;;0.00;0.00;;;;;;;;;;5070507;28;20445;-63
2022/06/02 02:53:58;;;;;;;0.00;0.00;;;;;;;;;;5070205;28;20024;-64
2022/06/02 02:56:43;;;;;;;0.00;0.00;;;;;;;;;;5070464;28;20055;-64
2022/06/02 02:59:19;;;;;;;0.00;0.00;;;;;;;;;;5069365;28;20068;-63
2022/06/02 03:01:47;;;;;;;0.00;0.00;;;;;;;;;;5051834;28;20029;-64
2022/06/02 03:04:13;;;;;;;0.00;0.00;;;;;;;;;;5069149;28;20083;-63
2022/06/02 03:06:42;;;;;;;0.00;0.00;;;;;;;;;;5070132;28;20153;-63
2022/06/02 03:09:07;;;;;;;0.00;0.00;;;;;;;;;;5070129;28;20028;-64
2022/06/02 03:11:57;;;;;;;0.00;0.00;;;;;;;;;;5069786;28;21330;-64
2022/06/02 03:14:28;;;;;;;0.00;0.00;;;;;;;;;;5070505;28;20258;-64
2022/06/02 03:17:00;;;;;;;0.30;0.30;;;;;;;;;;5070180;28;20488;-64
2022/06/02 03:19:37;;;;;;;0.00;0.00;;;;;;;;;;5068295;28;20089;-64
2022/06/02 03:22:12;;;;;;;0.00;0.00;;;;;;;;;;5069850;28;20024;-63
2022/06/02 03:24:49;;;;;;;0.00;0.00;;;;;;;;;;5070305;28;20565;-64
2022/06/02 03:27:31;;;;;;;0.00;0.00;;;;;;;;;;5070522;28;20545;-63
2022/06/02 03:30:06;;;;;;;0.00;0.00;;;;;;;;;;5069761;28;20182;-65
2022/06/02 03:32:38;;;;;;;0.00;0.00;;;;;;;;;;5067825;28;20024;-63
2022/06/02 03:35:36;;;;;;;0.00;0.00;;;;;;;;;;5068114;28;20485;-63
2022/06/02 03:38:16;;;;;;;0.00;0.00;;;;;;;;;;5006908;28;20040;-64
2022/06/02 03:40:41;;;;;;;0.00;0.00;;;;;;;;;;5007414;28;20022;-64
2022/06/02 03:43:12;;;;;;;0.00;0.00;;;;;;;;;;5007155;28;20039;-63
2022/06/02 03:45:44;;;;;;;0.00;0.00;;;;;;;;;;5005792;28;20277;-63
2022/06/02 03:48:27;;;;;;;0.00;0.00;;;;;;;;;;5005823;28;20038;-63
2022/06/02 03:51:05;;;;;;;0.00;0.00;;;;;;;;;;5005583;28;20125;-64
2022/06/02 03:53:37;;;;;;;0.00;0.00;;;;;;;;;;5007622;28;20044;-63
2022/06/02 03:56:21;;;;;;;0.00;0.00;;;;;;;;;;5005348;28;20529;-65
2022/06/02 03:58:46;;;;;;;0.00;0.00;;;;;;;;;;5005851;28;20034;-65
2022/06/02 04:01:17;;;;;;;0.00;0.00;;;;;;;;;;5005201;28;20166;-65
2022/06/02 04:04:00;;;;;;;0.00;0.00;;;;;;;;;;5007201;28;20141;-65
2022/06/02 04:06:33;;;;;;;0.00;0.00;;;;;;;;;;5006160;28;20112;-63
2022/06/02 04:09:17;;;;;;;0.10;0.10;;;;;;;;;;5005536;28;20034;-65
2022/06/02 04:14:53;;;;;;;0.00;0.00;;;;;;;;;;5060508;28;20120;-64
2022/06/02 04:17:36;;;;;;;0.00;0.00;;;;;;;;;;5067847;28;20028;-65
2022/06/02 04:23:04;;;;;;;0.15;0.15;;;;;;;;;;5068286;28;20035;-64
2022/06/02 04:25:41;;;;;;;0.00;0.00;;;;;;;;;;5069049;28;20138;-64
2022/06/02 04:28:25;;;;;;;0.55;0.55;;;;;;;;;;5067565;28;20475;-64
2022/06/02 04:31:01;;;;;;;0.00;0.00;;;;;;;;;;5068016;28;20027;-64
2022/06/02 04:33:33;;;;;;;0.00;0.00;;;;;;;;;;5067432;28;20031;-64
2022/06/02 04:36:08;;;;;;;0.00;0.00;;;;;;;;;;5066627;28;20024;-64
2022/06/02 04:38:52;;;;;;;0.00;0.00;;;;;;;;;;5068661;28;20021;-64
2022/06/02 04:41:25;;;;;;;0.00;0.00;;;;;;;;;;5068786;28;20024;-64
2022/06/02 04:44:03;;;;;;;0.00;0.00;;;;;;;;;;5068179;28;20045;-64
2022/06/02 04:46:47;;;;;;;0.00;0.00;;;;;;;;;;5067392;28;20469;-64
2022/06/02 04:49:21;;;;;;;0.10;0.10;;;;;;;;;;5067952;28;20016;-64
2022/06/02 04:51:53;;;;;;;0.00;0.00;;;;;;;;;;5068816;28;20024;-64
2022/06/02 04:54:36;;;;;;;0.10;0.00;;;;;;;;;;5068692;28;20020;-64
2022/06/02 04:57:20;;;;;;;0.47;0.47;;;;;;;;;;5067738;28;20099;-64
2022/06/02 04:59:51;;;;;;;0.00;0.00;;;;;;;;;;5067636;28;20059;-64
2022/06/02 05:02:22;;;;;;;0.00;0.00;;;;;;;;;;5066801;28;20052;-63
2022/06/02 05:04:51;;;;;;;0.00;0.00;;;;;;;;;;5067847;28;20140;-63
2022/06/02 05:07:22;;;;;;;0.00;0.00;;;;;;;;;;5066163;28;20040;-63
2022/06/02 05:09:56;;;;;;;0.00;0.00;;;;;;;;;;5049990;28;20432;-63
2022/06/02 05:12:36;;;;;;;0.00;0.00;;;;;;;;;;5067681;28;20021;-64
2022/06/02 05:15:05;;;;;;;0.00;0.00;;;;;;;;;;5067262;28;20408;-65
2022/06/02 05:17:54;;;;;;;0.00;0.00;;;;;;;;;;5069092;28;20024;-64
2022/06/02 05:20:19;;;;;;;;;;;;;;;;;;5067639;28;20342;-64
2022/06/02 05:22:56;;;;;;;0.00;0.00;;;;;;;;;;5068104;28;20023;-64
2022/06/02 05:25:31;;;;;;;0.00;0.00;;;;;;;;;;5067999;28;20056;-64
2022/06/02 05:28:04;;;;;;;0.00;0.00;;;;;;;;;;5067427;28;20051;-64
2022/06/02 05:30:33;;;;;;;0.00;0.00;;;;;;;;;;5068260;28;20035;-64
2022/06/02 05:33:05;;;;;;;0.00;0.00;;;;;;;;;;5067445;28;20436;-64
2022/06/02 05:35:48;;;;;;;0.00;0.00;;;;;;;;;;5071435;28;20028;-64
2022/06/02 05:38:32;;;;;;;0.00;0.00;;;;;;;;;;5071571;28;20398;-65
2022/06/02 05:41:14;;;;;;;0.55;0.55;;;;;;;;;;5070583;28;20594;-64
2022/06/02 05:43:50;;;;;;;0.00;0.00;;;;;;;;;;5071040;28;20103;-64
2022/06/02 05:46:34;;;;;;;0.00;0.00;;;;;;;;;;5070663;28;20061;-63
2022/06/02 05:49:18;;;;;;;0.22;0.22;;;;;;;;;;5070987;28;20103;-64
2022/06/02 05:52:23;;;;;;;0.00;0.00;;;;;;;;;;5071589;28;20130;-64
2022/06/02 05:55:20;;;;;;;0.00;0.00;;;;;;;;;;4988041;28;20266;-65
2022/06/02 05:58:11;;;;;;;0.00;0.00;;;;;;;;;;4930968;29;20036;-63
2022/06/02 06:00:37;;;;;;;0.00;0.00;;;;;;;;;;4928751;29;20039;-64
2022/06/02 06:03:11;;;;;;;0.00;0.00;;;;;;;;;;4930772;29;20102;-64
2022/06/02 06:05:46;;;;;;;0.13;0.13;;;;;;;;;;4931564;29;20048;-64
2022/06/02 06:08:15;;;;;;;0.52;0.52;;;;;;;;;;4931047;29;20032;-64
2022/06/02 06:10:58;;;;;;;0.00;0.00;;;;;;;;;;4931329;29;20032;-63
2022/06/02 06:13:29;;;;;;;0.00;0.00;;;;;;;;;;4930665;29;20043;-65
2022/06/02 06:16:04;;;;;;;0.38;0.30;;;;;;;;;;4931065;29;20568;-62
2022/06/02 06:18:29;;;;;;;0.28;0.28;;;;;;;;;;4931641;29;20039;-65
2022/06/02 06:20:57;;;;;;;1.17;1.13;;;;;;;;;;4930942;29;20090;-64
2022/06/02 06:23:41;;;;;;;0.00;0.00;;;;;;;;;;4931414;29;20843;-64
2022/06/02 06:26:25;;;;;;;0.00;0.00;;;;;;;;;;4967803;28;20034;-63
2022/06/02 06:29:01;;;;;;;0.00;0.00;;;;;;;;;;4989192;28;20038;-64
2022/06/02 06:31:36;;;;;;;0.80;0.55;;;;;;;;;;4989711;28;20482;-64
2022/06/02 06:34:17;;;;;;;0.00;0.00;;;;;;;;;;5035082;28;20033;-64
2022/06/02 06:36:48;;;;;;;0.38;0.38;;;;;;;;;;5069719;28;20060;-63
2022/06/02 06:39:14;;;;;;;0.20;0.20;;;;;;;;;;5070335;28;20031;-65
2022/06/02 06:41:42;;;;;;;0.00;0.00;;;;;;;;;;5053709;28;20131;-64
2022/06/02 06:44:09;;;;;;;0.00;0.00;;;;;;;;;;5069683;28;20028;-64
2022/06/02 06:46:56;;;;;;;0.00;0.00;;;;;;;;;;5070976;28;20477;-64
2022/06/02 06:49:35;;;;;;;0.00;0.00;;;;;;;;;;5069928;28;20033;-64
2022/06/02 06:52:01;;;;;;;1.05;0.43;;;;;;;;;;5047363;28;20020;-64
2022/06/02 06:54:29;;;;;;;0.00;0.00;;;;;;;;;;5066752;28;20016;-64
2022/06/02 06:57:12;;;;;;;0.17;0.17;;;;;;;;;;5066722;28;20762;-64
2022/06/02 06:59:47;;;;;;;0.03;0.03;;;;;;;;;;5069332;28;20399;-64
2022/06/02 07:02:22;;;;;;;0.00;0.00;;;;;;;;;;5069812;28;20017;-64
2022/06/02 07:05:06;;;;;;;0.00;0.00;;;;;;;;;;5069985;28;20095;-64
2022/06/02 07:07:32;;;;;;;0.00;0.00;;;;;;;;;;5070547;28;20048;-64
2022/06/02 07:10:06;;;;;;;0.00;0.00;;;;;;;;;;5068775;28;20462;-64
2022/06/02 07:12:51;;;;;;;0.00;0.00;;;;;;;;;;5070311;28;20026;-64
2022/06/02 07:15:16;;;;;;;0.08;0.08;;;;;;;;;;5068676;28;20424;-65
2022/06/02 07:18:00;;;;;;;0.00;0.00;;;;;;;;;;5069834;28;20024;-64
2022/06/02 07:20:30;;;;;;;1.48;1.45;;;;;;;;;;5069298;28;20462;-64
2022/06/02 07:23:16;;;;;;;0.00;0.00;;;;;;;;;;5069864;28;20024;-65
2022/06/02 07:26:06;;;;;;;0.00;0.00;;;;;;;;;;5069736;28;20032;-64
2022/06/02 07:28:32;;;;;;;0.08;0.08;;;;;;;;;;5069425;28;20437;-64
2022/06/02 07:31:03;;;;;;;1.03;1.00;;;;;;;;;;5051620;28;20031;-64
2022/06/02 07:33:50;;;;;;;0.10;0.10;;;;;;;;;;5069698;28;20274;-63
2022/06/02 07:36:16;;;;;;;0.00;0.00;;;;;;;;;;5069932;28;20024;-64
2022/06/02 07:39:07;;;;;;;0.00;0.00;;;;;;;;;;5069077;28;20408;-64
2022/06/02 07:41:51;;;;;;;0.90;0.90;;;;;;;;;;5068623;28;20020;-64
2022/06/02 07:44:34;;;;;;;0.10;0.10;;;;;;;;;;5068639;28;20030;-64
2022/06/02 07:47:00;;;;;;;0.00;0.00;;;;;;;;;;5068713;28;20108;-65
2022/06/02 07:49:40;;;;;;;0.10;0.10;;;;;;;;;;5069158;28;20096;-65
2022/06/02 07:52:05;;;;;;;0.00;0.00;;;;;;;;;;5068200;28;20196;-65
2022/06/02 07:54:37;;;;;;;0.00;0.00;;;;;;;;;;5069244;28;20064;-62
2022/06/02 07:57:12;;;;;;;0.10;0.10;;;;;;;;;;5068088;28;20247;-66
2022/06/02 07:59:55;;;;;;;0.00;0.00;;;;;;;;;;5068638;28;20078;-65
2022/06/02 08:02:30;;;;;;;0.00;0.00;;;;;;;;;;5068815;28;20480;-66
2022/06/02 08:05:08;;;;;;;0.00;0.00;;;;;;;;;;5068915;28;20147;-66
2022/06/02 08:07:49;;;;;;;0.10;0.10;;;;;;;;;;5069501;28;20085;-66
2022/06/02 08:10:29;;;;;;;0.00;0.00;;;;;;;;;;5067796;28;20394;-66
2022/06/02 08:13:00;;;;;;;0.00;0.00;;;;;;;;;;5067943;28;20058;-67
2022/06/02 08:15:38;;;;;;;0.00;0.00;;;;;;;;;;5067812;28;20020;-66
2022/06/02 08:18:06;;;;;;;0.00;0.00;;;;;;;;;;5068116;28;20131;-66
2022/06/02 08:20:50;;;;;;;0.00;0.00;;;;;;;;;;5068650;28;20028;-66
2022/06/02 08:23:41;;;;;;;0.00;0.00;;;;;;;;;;5067407;28;20642;-67
2022/06/02 08:26:10;;;;;;;0.00;0.00;;;;;;;;;;5064313;28;20481;-66
2022/06/02 08:28:48;;;;;;;0.00;0.00;;;;;;;;;;5062058;28;20108;-66
2022/06/02 08:31:16;;;;;;;0.00;0.00;;;;;;;;;;5064420;28;20028;-66
2022/06/02 08:33:56;;;;;;;0.00;0.00;;;;;;;;;;5063164;28;20389;-66
2022/06/02 08:36:26;;;;;;;0.52;0.52;;;;;;;;;;5063427;28;20020;-66
2022/06/02 08:38:57;;;;;;;0.00;0.00;;;;;;;;;;5066517;28;20373;-66
2022/06/02 08:41:33;;;;;;;0.00;0.00;;;;;;;;;;5066921;28;20385;-65
2022/06/02 08:44:17;;;;;;;0.00;0.00;;;;;;;;;;5065117;28;20107;-68
2022/06/02 08:46:43;;;;;;;0.00;0.00;;;;;;;;;;5068134;28;20053;-67
2022/06/02 08:49:23;;;;;;;0.00;0.00;;;;;;;;;;5068656;28;20063;-67
2022/06/02 08:52:00;;;;;;;0.00;0.00;;;;;;;;;;5068077;28;20397;-65
2022/06/02 08:54:34;;;;;;;0.00;0.00;;;;;;;;;;5067171;28;20024;-66
2022/06/02 08:57:03;;;;;;;0.00;0.00;;;;;;;;;;5067093;28;20077;-66
2022/06/02 08:59:47;;;;;;;0.00;0.00;;;;;;;;;;5067475;28;20056;-67
2022/06/02 09:02:22;;;;;;;0.10;0.10;;;;;;;;;;5067202;28;20039;-67
2022/06/02 09:04:54;;;;;;;0.00;0.00;;;;;;;;;;5067847;28;20095;-67
2022/06/02 09:07:39;;;;;;;0.10;0.10;;;;;;;;;;5068363;28;20483;-65
2022/06/02 09:10:08;;;;;;;0.00;0.00;;;;;;;;;;5070636;28;20017;-66
2022/06/02 09:12:33;;;;;;;0.00;0.00;;;;;;;;;;5072260;28;20016;-67
2022/06/02 09:15:17;;;;;;;0.00;0.00;;;;;;;;;;5071818;28;20460;-67
2022/06/02 09:17:51;;;;;;;0.10;0.10;;;;;;;;;;5071308;28;20103;-67
2022/06/02 09:20:19;;;;;;;0.00;0.00;;;;;;;;;;5070024;28;20059;-66
2022/06/02 09:22:55;;;;;;;0.28;0.28;;;;;;;;;;5072289;28;20027;-67
2022/06/02 09:25:26;;;;;;;0.57;0.57;;;;;;;;;;5072397;28;20515;-66
2022/06/02 09:28:06;;;;;;;0.30;0.20;;;;;;;;;;5072438;28;20017;-68
2022/06/02 09:30:43;;;;;;;0.00;0.00;;;;;;;;;;5072328;28;20077;-68
2022/06/02 09:33:33;;;;;;;3.83;0.52;;;;;;;;;;5071729;28;20432;-68
2022/06/02 09:35:59;;;;;;;0.47;0.47;;;;;;;;;;5069965;28;20031;-68
2022/06/02 09:38:43;;;;;;;0.00;0.00;;;;;;;;;;5071981;28;20419;-71
2022/06/02 09:41:08;;;;;;;0.00;0.00;;;;;;;;;;5071773;28;20675;-68
2022/06/02 09:43:36;;;;;;;0.00;0.00;;;;;;;;;;5071998;28;20016;-65
2022/06/02 09:46:12;;;;;;;0.28;0.28;;;;;;;;;;5071641;28;20330;-64
2022/06/02 09:48:46;;;;;;;0.00;0.00;;;;;;;;;;5071853;28;20020;-67
2022/06/02 09:51:30;;;;;;;2.05;1.88;;;;;;;;;;5070565;28;20095;-65
2022/06/02 09:53:58;;;;;;;0.00;0.00;;;;;;;;;;5069472;28;20029;-66
2022/06/02 09:56:23;;;;;;;0.00;0.00;;;;;;;;;;5071695;28;20023;-66
2022/06/02 09:58:55;;;;;;;0.00;0.00;;;;;;;;;;5071500;28;20377;-65
2022/06/02 10:01:39;;;;;;;0.00;0.00;;;;;;;;;;5069991;28;20259;-74
2022/06/02 10:04:22;;;;;;;0.30;0.30;;;;;;;;;;5069650;28;20048;-67
2022/06/02 10:07:10;;;;;;;1.15;1.15;;;;;;;;;;5071087;28;20035;-66
2022/06/02 10:09:44;;;;;;;0.00;0.00;;;;;;;;;;5071200;28;20028;-66
2022/06/02 10:15:05;;;;;;;0.00;0.00;;;;;;;;;;5071367;28;20043;-68
2022/06/02 10:17:34;;;;;;;0.00;0.00;;;;;;;;;;5069887;28;20056;-68
2022/06/02 10:20:08;;;;;;;0.00;0.00;;;;;;;;;;5068610;28;20013;-67
2022/06/02 10:22:40;;;;;;;0.00;0.00;;;;;;;;;;5070128;28;20024;-67
2022/06/02 10:25:08;;;;;;;0.00;0.00;;;;;;;;;;5070566;28;20028;-67
2022/06/02 10:27:40;;;;;;;0.00;0.00;;;;;;;;;;5066057;28;20051;-65
2022/06/02 10:30:24;;;;;;;0.00;0.00;;;;;;;;;;5066217;28;20483;-65
2022/06/02 10:32:49;;;;;;;0.03;0.03;;;;;;;;;;5069402;28;20038;-63
2022/06/02 10:35:26;;;;;;;0.35;0.35;;;;;;;;;;5069807;28;20020;-62
2022/06/02 10:38:10;;;;;;;0.00;0.00;;;;;;;;;;5070622;28;20020;-63
2022/06/02 10:40:44;;;;;;;0.63;0.28;;;;;;;;;;5070914;28;20031;-64
2022/06/02 10:43:28;;;;;;;0.00;0.00;;;;;;;;;;5069161;28;20462;-63
2022/06/02 10:45:53;;;;;;;0.00;0.00;;;;;;;;;;5069465;28;20183;-63
2022/06/02 10:48:24;;;;;;;0.00;0.00;;;;;;;;;;5069975;28;20112;-63
2022/06/02 10:51:08;;;;;;;0.00;0.00;;;;;;;;;;5070821;28;20027;-69
2022/06/02 10:53:42;;;;;;;0.10;0.05;;;;;;;;;;5069998;28;20142;-62
2022/06/02 10:56:08;;;;;;;0.10;0.10;;;;;;;;;;5069616;28;20074;-64
2022/06/02 10:58:33;;;;;;;0.10;0.10;;;;;;;;;;5070544;28;20054;-67
2022/06/02 11:01:11;;;;;;;0.00;0.00;;;;;;;;;;5069208;28;20024;-67
2022/06/02 11:03:46;;;;;;;0.00;0.00;;;;;;;;;;5041252;28;20308;-62
2022/06/02 11:06:30;;;;;;;0.13;0.13;;;;;;;;;;5047759;28;20020;-67
2022/06/02 11:09:01;;;;;;;0.00;0.00;;;;;;;;;;5049454;28;20025;-62
2022/06/02 11:11:45;;;;;;;0.00;0.00;;;;;;;;;;5048591;28;20017;-67
2022/06/02 11:14:12;;;;;;;0.32;0.32;;;;;;;;;;5049774;28;20036;-67
2022/06/02 11:16:56;;;;;;;0.00;0.00;;;;;;;;;;5049930;28;20031;-70
2022/06/02 11:19:34;;;;;;;0.00;0.00;;;;;;;;;;5028873;28;20082;-71
2022/06/02 11:22:18;;;;;;;0.00;0.00;;;;;;;;;;5048192;28;20055;-69
2022/06/02 11:25:02;;;;;;;0.00;0.00;;;;;;;;;;5048589;28;20029;-68
2022/06/02 11:27:33;;;;;;;0.00;0.00;;;;;;;;;;5047686;28;20645;-70
2022/06/02 11:30:01;;;;;;;0.00;0.00;;;;;;;;;;5046955;28;20025;-68
2022/06/02 11:32:45;;;;;;;0.00;0.00;;;;;;;;;;5029864;28;20122;-68
2022/06/02 11:35:29;;;;;;;0.00;0.00;;;;;;;;;;5047975;28;20047;-68
2022/06/02 11:37:57;;;;;;;0.00;0.00;;;;;;;;;;5049460;28;20378;-69
2022/06/02 11:40:37;;;;;;;0.00;0.00;;;;;;;;;;5049311;28;20486;-68
2022/06/02 11:43:16;;;;;;;0.00;0.00;;;;;;;;;;5048849;28;20415;-67
2022/06/02 11:46:03;;;;;;;0.00;0.00;;;;;;;;;;5048157;28;20021;-67
2022/06/02 11:48:45;;;;;;;0.00;0.00;;;;;;;;;;5048750;28;20053;-68
2022/06/02 11:51:16;;;;;;;0.00;0.00;;;;;;;;;;5048522;28;20031;-67
2022/06/02 11:53:44;;;;;;;0.00;0.00;;;;;;;;;;5048439;28;20104;-67
2022/06/02 11:56:26;;;;;;;0.00;0.00;;;;;;;;;;5049199;28;20017;-68
2022/06/02 11:58:51;;;;;;;0.00;0.00;;;;;;;;;;5046284;28;20113;-68
2022/06/02 12:01:21;;;;;;;0.00;0.00;;;;;;;;;;5048401;28;20441;-68
2022/06/02 12:04:05;;;;;;;0.00;0.00;;;;;;;;;;5057117;28;20296;-67
2022/06/02 12:06:36;;;;;;;0.00;0.00;;;;;;;;;;5069627;28;20043;-68
2022/06/02 12:09:07;;;;;;;0.00;0.00;;;;;;;;;;5068768;28;20373;-68
2022/06/02 12:11:51;;;;;;;0.00;0.00;;;;;;;;;;5068339;28;20012;-67
2022/06/02 12:14:35;;;;;;;0.00;0.00;;;;;;;;;;5066584;28;20030;-66
2022/06/02 12:17:17;;;;;;;0.00;0.00;;;;;;;;;;5068301;28;20071;-66
2022/06/02 12:19:45;;;;;;;0.00;0.00;;;;;;;;;;5068795;28;20024;-67
2022/06/02 12:22:20;;;;;;;0.00;0.00;;;;;;;;;;5068596;28;20081;-66
2022/06/02 12:25:09;;;;;;;0.00;0.00;;;;;;;;;;5069279;28;20025;-67
2022/06/02 12:27:43;;;;;;;0.10;0.10;;;;;;;;;;5028910;28;20439;-68
2022/06/02 12:30:14;;;;;;;0.00;0.00;;;;;;;;;;5067917;28;20457;-67
2022/06/02 12:32:55;;;;;;;0.00;0.00;;;;;;;;;;5067769;28;20039;-66
2022/06/02 12:35:30;;;;;;;0.00;0.00;;;;;;;;;;5068210;28;20043;-67
2022/06/02 12:37:58;;;;;;;0.35;0.08;;;;;;;;;;5068675;28;20028;-68
2022/06/02 12:40:40;;;;;;;0.00;0.00;;;;;;;;;;5067336;28;20063;-69
2022/06/02 12:43:18;;;;;;;0.15;0.15;;;;;;;;;;5067880;28;20086;-69
2022/06/02 12:46:10;;;;;;;0.00;0.00;;;;;;;;;;5062468;28;20467;-68
2022/06/02 12:48:53;;;;;;;0.00;0.00;;;;;;;;;;5034683;28;20503;-68
2022/06/02 12:51:21;;;;;;;0.00;0.00;;;;;;;;;;5067584;28;20028;-68
2022/06/02 12:53:49;;;;;;;0.00;0.00;;;;;;;;;;5069222;28;20678;-68
2022/06/02 12:56:28;;;;;;;0.00;0.00;;;;;;;;;;5063651;28;20040;-69
2022/06/02 12:59:12;;;;;;;0.10;0.10;;;;;;;;;;5064229;28;20537;-68
2022/06/02 13:01:56;;;;;;;0.15;0.08;;;;;;;;;;5066447;28;20025;-69
2022/06/02 13:04:21;;;;;;;0.00;0.00;;;;;;;;;;5066012;28;20060;-68
2022/06/02 13:07:05;;;;;;;0.00;0.00;;;;;;;;;;5067676;28;20069;-67
2022/06/02 13:09:53;;;;;;;0.00;0.00;;;;;;;;;;5063123;28;20791;-69
2022/06/02 13:12:18;;;;;;;0.00;0.00;;;;;;;;;;5066090;28;20033;-68
2022/06/02 13:14:58;;;;;;;0.00;0.00;;;;;;;;;;5068029;28;20099;-68
2022/06/02 13:17:45;;;;;;;0.10;0.00;;;;;;;;;;5068043;28;20255;-69
2022/06/02 13:20:20;;;;;;;0.00;0.00;;;;;;;;;;5066246;28;20024;-69
2022/06/02 13:23:08;;;;;;;0.00;0.00;;;;;;;;;;5067473;28;20028;-67
2022/06/02 13:25:43;;;;;;;0.00;0.00;;;;;;;;;;5057162;28;20036;-67
2022/06/02 13:28:27;;;;;;;0.00;0.00;;;;;;;;;;5062244;28;20032;-67
2022/06/02 13:30:55;;;;;;;0.00;0.00;;;;;;;;;;5065630;28;20031;-68
2022/06/02 13:33:23;;;;;;;0.00;0.00;;;;;;;;;;5066475;28;20036;-63
2022/06/02 13:36:08;;;;;;;0.00;0.00;;;;;;;;;;5063684;28;20047;-67
2022/06/02 13:38:48;;;;;;;0.00;0.00;;;;;;;;;;5063747;28;20032;-62
2022/06/02 13:41:22;;;;;;;0.00;0.00;;;;;;;;;;5063680;28;20035;-61
2022/06/02 13:43:50;;;;;;;0.00;0.00;;;;;;;;;;5063030;28;20033;-63
2022/06/02 13:46:15;;;;;;;0.00;0.00;;;;;;;;;;5062070;28;20040;-63
2022/06/02 13:48:59;;;;;;;0.00;0.00;;;;;;;;;;5066426;28;20105;-62
2022/06/02 13:51:43;;;;;;;0.00;0.00;;;;;;;;;;5060906;28;20111;-63
2022/06/02 13:57:32;;;;;;;0.00;0.00;;;;;;;;;;5069790;28;20032;-61
2022/06/02 14:00:10;;;;;;;0.00;0.00;;;;;;;;;;5069105;28;20020;-63
2022/06/02 14:02:54;;;;;;;0.00;0.00;;;;;;;;;;5068973;28;20033;-64
2022/06/02 14:05:38;;;;;;;0.00;0.00;;;;;;;;;;5068176;28;20365;-60
2022/06/02 14:08:26;;;;;;;0.20;0.20;;;;;;;;;;5050815;28;20020;-63
2022/06/02 14:10:51;;;;;;;0.93;0.52;;;;;;;;;;5066517;28;20541;-64
2022/06/02 14:13:20;;;;;;;0.47;0.47;;;;;;;;;;5068182;28;20021;-64
2022/06/02 14:15:45;;;;;;;0.00;0.00;;;;;;;;;;5068337;28;20039;-63
2022/06/02 14:18:13;;;;;;;0.00;0.00;;;;;;;;;;5070105;28;20013;-63
2022/06/02 14:20:57;;;;;;;0.00;0.00;;;;;;;;;;5069893;28;20497;-64
2022/06/02 14:23:28;;;;;;;0.00;0.00;;;;;;;;;;5068440;28;20016;-64
2022/06/02 14:26:26;;;;;;;0.00;0.00;;;;;;;;;;5071510;28;20111;-64
2022/06/02 14:28:52;;;;;;;0.00;0.00;;;;;;;;;;5037120;28;20062;-66
2022/06/02 14:31:35;;;;;;;0.00;0.00;;;;;;;;;;5070208;28;20020;-65
2022/06/02 14:34:03;;;;;;;0.00;0.00;;;;;;;;;;5070188;28;20030;-68
2022/06/02 14:36:43;;;;;;;0.32;0.32;;;;;;;;;;5070452;28;20585;-67
2022/06/02 14:39:08;;;;;;;0.00;0.00;;;;;;;;;;5069105;28;20096;-66
2022/06/02 14:41:36;;;;;;;0.00;0.00;;;;;;;;;;5070749;28;20083;-67
2022/06/02 14:44:04;;;;;;;0.77;0.77;;;;;;;;;;5069143;28;20016;-62
2022/06/02 14:46:35;;;;;;;0.00;0.00;;;;;;;;;;5070364;28;20043;-66
2022/06/02 14:49:24;;;;;;;0.17;0.17;;;;;;;;;;5070538;28;20028;-66
2022/06/02 14:52:07;;;;;;;0.00;0.00;;;;;;;;;;5070082;28;20028;-65
2022/06/02 14:54:51;;;;;;;0.10;0.10;;;;;;;;;;5070456;28;20111;-66
2022/06/02 14:57:33;;;;;;;0.00;0.00;;;;;;;;;;5069785;28;20024;-64
2022/06/02 15:00:17;;;;;;;0.00;0.00;;;;;;;;;;5067978;28;20067;-64
2022/06/02 15:03:00;;;;;;;0.00;0.00;;;;;;;;;;5070048;28;20392;-65
2022/06/02 15:05:26;;;;;;;0.08;0.08;;;;;;;;;;5051023;28;20064;-65
2022/06/02 15:08:16;;;;;;;0.00;0.00;;;;;;;;;;5070706;28;20121;-59
2022/06/02 15:11:01;;;;;;;0.00;0.00;;;;;;;;;;5069277;28;20377;-64
2022/06/02 15:13:57;;;;;;;0.00;0.00;;;;;;;;;;5068558;28;20082;-64
2022/06/02 15:16:47;;;;;;;2.63;0.35;;;;;;;;;;5068322;28;20179;-64
2022/06/02 15:19:18;;;;;;;0.00;0.00;;;;;;;;;;5069580;28;20477;-62
2022/06/02 15:22:02;;;;;;;0.00;0.00;;;;;;;;;;5052366;28;20115;-62
2022/06/02 15:24:32;;;;;;;0.00;0.00;;;;;;;;;;5070077;28;20107;-62
2022/06/02 15:27:16;;;;;;;0.00;0.00;;;;;;;;;;5068672;28;20070;-63
2022/06/02 15:29:44;;;;;;;0.00;0.00;;;;;;;;;;5051156;28;20032;-62
2022/06/02 15:32:15;;;;;;;0.00;0.00;;;;;;;;;;5068771;28;20469;-60
2022/06/02 15:35:00;;;;;;;0.00;0.00;;;;;;;;;;5069680;28;20017;-62
2022/06/02 15:37:28;;;;;;;0.10;0.10;;;;;;;;;;5068824;28;20042;-63
2022/06/02 15:40:02;;;;;;;0.00;0.00;;;;;;;;;;5069696;28;20056;-61
2022/06/02 15:42:40;;;;;;;0.20;0.20;;;;;;;;;;5063916;28;20547;-61
2022/06/02 15:45:08;;;;;;;0.20;0.20;;;;;;;;;;5067176;28;20044;-61
2022/06/02 15:47:49;;;;;;;0.00;0.00;;;;;;;;;;5068098;28;20028;-61
2022/06/02 15:50:32;;;;;;;0.00;0.00;;;;;;;;;;5068189;28;20032;-62